Time;durP1;ratioP1;P1;durP2;ratioP2;P2;SDS_P1;SDS_P2;PMS_P1;PMS_P2;Temp;Humidity;BMP_temperature;BMP_pressure;BME280_temperature;BME280_humidity;BME280_pressure;Samples;Min_cycle;Max_cycle;Signal;HPM_P1;HPM_P2
2022/08/17 00:01:00;;;;;;;19.27;17.38;;;20.60;99.90;;;;;;5019762;28;20037;-81
2022/08/17 00:03:28;;;;;;;19.45;17.55;;;20.50;99.90;;;;;;5035680;28;20046;-82
2022/08/17 00:06:01;;;;;;;19.77;17.83;;;20.50;99.90;;;;;;5019631;28;20500;-81
2022/08/17 00:08:36;;;;;;;20.17;18.15;;;20.50;99.90;;;;;;5035479;28;20042;-82
2022/08/17 00:11:09;;;;;;;20.75;18.85;;;20.50;99.90;;;;;;5035679;28;20050;-82
2022/08/17 00:13:44;;;;;;;19.65;17.30;;;20.40;99.90;;;;;;5019296;28;20551;-81
2022/08/17 00:16:22;;;;;;;19.57;17.67;;;20.40;99.90;;;;;;5019896;28;20040;-81
2022/08/17 00:18:49;;;;;;;19.20;17.30;;;20.30;99.90;;;;;;5006008;28;20134;-81
2022/08/17 00:21:17;;;;;;;20.63;18.65;;;20.30;99.90;;;;;;5020405;28;20068;-81
2022/08/17 00:23:44;;;;;;;20.38;18.38;;;20.30;99.90;;;;;;5019211;28;20398;-81
2022/08/17 00:26:10;;;;;;;21.17;19.08;;;20.20;99.90;;;;;;5035339;28;20124;-81
2022/08/17 00:28:37;;;;;;;21.33;19.23;;;20.20;99.90;;;;;;5034126;28;20045;-81
2022/08/17 00:36:17;;;;;;;20.83;18.77;;;20.00;99.90;;;;;;5337166;22;20096;-82
2022/08/17 00:38:43;;;;;;;23.58;21.17;;;20.00;99.90;;;;;;5724181;22;20077;-83
2022/08/17 00:41:44;;;;;;;25.17;22.45;;;19.90;99.90;;;;;;5790551;22;20024;31
2022/08/17 00:44:10;;;;;;;23.77;21.42;;;19.90;99.90;;;;;;4923690;23;20054;-77
2022/08/17 00:46:40;;;;;;;23.00;20.80;;;19.80;99.90;;;;;;4932004;29;20071;-77
2022/08/17 00:49:08;;;;;;;23.17;20.98;;;19.80;99.90;;;;;;4932863;29;20075;-77
2022/08/17 00:51:40;;;;;;;23.98;21.67;;;19.80;99.90;;;;;;4936521;29;20035;-77
2022/08/17 00:54:20;;;;;;;26.33;23.80;;;19.80;99.90;;;;;;4920793;29;20074;-77
2022/08/17 00:56:50;;;;;;;29.98;22.60;;;19.70;99.90;;;;;;4936036;29;20044;-77
2022/08/17 00:59:20;;;;;;;25.25;22.65;;;19.70;99.90;;;;;;4927741;29;20051;-77
2022/08/17 01:01:48;;;;;;;25.35;22.92;;;19.70;99.90;;;;;;4917618;29;20051;-77
2022/08/17 01:04:16;;;;;;;23.27;20.95;;;19.80;99.90;;;;;;4930812;29;20103;-77
2022/08/17 01:06:45;;;;;;;27.13;23.27;;;19.70;99.90;;;;;;4918741;29;20404;-77
2022/08/17 01:09:13;;;;;;;25.02;22.13;;;19.70;99.90;;;;;;4911570;29;20502;-77
2022/08/17 01:11:39;;;;;;;26.52;22.95;;;19.70;99.90;;;;;;4917807;29;20051;-77
2022/08/17 01:14:06;;;;;;;26.95;22.77;;;19.70;99.90;;;;;;4904726;29;20130;-77
2022/08/17 01:16:32;;;;;;;27.15;23.50;;;19.70;99.90;;;;;;4936272;29;20048;-77
2022/08/17 01:19:20;;;;;;;26.48;23.02;;;19.70;99.90;;;;;;4897763;29;20070;-77
2022/08/17 01:22:01;;;;;;;26.83;24.00;;;19.70;99.90;;;;;;4934489;29;20142;-77
2022/08/17 01:24:27;;;;;;;29.00;24.15;;;19.70;99.90;;;;;;4924872;29;20104;-77
2022/08/17 01:26:53;;;;;;;28.25;25.35;;;19.70;99.90;;;;;;4903278;29;20044;-77
2022/08/17 01:29:20;;;;;;;27.55;24.75;;;19.70;99.90;;;;;;4936081;29;20066;-77
2022/08/17 01:31:54;;;;;;;27.77;24.88;;;19.60;99.90;;;;;;4918287;29;20054;-77
2022/08/17 01:34:20;;;;;;;32.63;25.25;;;19.60;99.90;;;;;;4912780;29;20032;-77
2022/08/17 01:36:48;;;;;;;30.38;25.63;;;19.60;99.90;;;;;;4901192;29;20442;-77
2022/08/17 01:39:30;;;;;;;31.75;25.50;;;19.50;99.90;;;;;;4911615;29;20103;-77
2022/08/17 01:42:07;;;;;;;25.15;21.65;;;19.50;99.90;;;;;;4934923;29;20047;-76
2022/08/17 01:44:33;;;;;;;28.45;25.35;;;19.50;99.90;;;;;;4926638;29;20060;-77
2022/08/17 01:46:58;;;;;;;28.48;25.30;;;19.50;99.90;;;;;;4912965;29;20044;-77
2022/08/17 01:49:24;;;;;;;28.23;25.38;;;19.50;99.90;;;;;;4933045;29;20463;-77
2022/08/17 01:51:50;;;;;;;29.17;26.08;;;19.50;99.90;;;;;;4920155;29;20043;-77
2022/08/17 01:54:18;;;;;;;28.55;25.45;;;19.50;99.90;;;;;;4934714;29;20067;-77
2022/08/17 01:56:48;;;;;;;27.85;24.85;;;19.40;99.90;;;;;;4909167;29;20043;-77
2022/08/17 01:59:15;;;;;;;29.08;25.90;;;19.50;99.90;;;;;;4909843;29;20378;-77
2022/08/17 02:01:42;;;;;;;26.90;24.10;;;19.50;99.90;;;;;;4913479;29;20111;-77
2022/08/17 02:04:08;;;;;;;28.85;25.35;;;19.50;99.90;;;;;;4920052;29;20426;-77
2022/08/17 02:06:36;;;;;;;31.02;25.92;;;19.50;99.90;;;;;;4900906;29;20048;-77
2022/08/17 02:09:03;;;;;;;31.35;26.80;;;19.40;99.90;;;;;;4909091;29;20040;-77
2022/08/17 02:11:29;;;;;;;31.75;26.23;;;19.40;99.90;;;;;;4932043;29;20044;-77
2022/08/17 02:13:55;;;;;;;35.42;27.05;;;19.40;99.90;;;;;;4922907;29;20481;-77
2022/08/17 02:16:21;;;;;;;28.88;25.80;;;19.40;99.90;;;;;;4926223;29;20114;-77
2022/08/17 02:18:46;;;;;;;32.65;27.73;;;19.40;99.90;;;;;;4915369;29;20459;-77
2022/08/17 02:21:12;;;;;;;31.40;28.20;;;19.50;99.90;;;;;;4916453;29;20044;-77
2022/08/17 02:23:42;;;;;;;33.53;30.00;;;19.40;99.90;;;;;;4916256;29;20051;-77
2022/08/17 02:26:08;;;;;;;33.25;29.42;;;19.50;99.90;;;;;;4901161;29;20511;-77
2022/08/17 02:28:34;;;;;;;35.92;29.83;;;19.50;99.90;;;;;;4920456;29;20040;-77
2022/08/17 02:31:09;;;;;;;33.35;29.83;;;19.50;99.90;;;;;;4912419;29;20036;-77
2022/08/17 02:33:35;;;;;;;34.42;30.77;;;19.50;99.90;;;;;;4901504;29;20036;-77
2022/08/17 02:36:04;;;;;;;35.97;30.25;;;19.50;99.90;;;;;;4903935;29;20119;-77
2022/08/17 02:38:30;;;;;;;35.17;30.33;;;19.50;99.90;;;;;;4927852;29;20086;-77
2022/08/17 02:40:59;;;;;;;33.17;28.48;;;19.50;99.90;;;;;;4911695;29;20466;-77
2022/08/17 02:43:26;;;;;;;34.05;30.20;;;19.50;99.90;;;;;;4933637;29;20055;-77
2022/08/17 02:45:52;;;;;;;34.30;30.52;;;19.50;99.90;;;;;;4904469;29;20492;-77
2022/08/17 02:48:18;;;;;;;39.55;32.13;;;19.50;99.90;;;;;;4923963;29;20067;-77
2022/08/17 02:50:44;;;;;;;39.55;31.88;;;19.40;99.90;;;;;;4902675;29;20547;-77
2022/08/17 02:53:10;;;;;;;38.88;32.53;;;19.40;99.90;;;;;;4918763;29;20035;-76
2022/08/17 02:55:39;;;;;;;36.35;32.45;;;19.40;99.90;;;;;;4900035;29;20039;-77
2022/08/17 02:58:05;;;;;;;37.40;31.98;;;19.40;99.90;;;;;;4911328;29;20039;-77
2022/08/17 03:00:41;;;;;;;36.78;31.95;;;19.30;99.90;;;;;;4933999;29;20044;-77
2022/08/17 03:03:07;;;;;;;;;;;19.30;99.90;;;;;;4905449;29;20040;-77
2022/08/17 03:05:36;;;;;;;34.50;29.20;;;19.30;99.90;;;;;;4895342;29;20010;-77
2022/08/17 03:08:03;;;;;;;36.65;30.20;;;19.30;99.90;;;;;;4900727;29;20048;-77
2022/08/17 03:10:29;;;;;;;36.67;32.00;;;19.30;99.90;;;;;;4890184;29;20496;-77
2022/08/17 03:12:55;;;;;;;38.60;33.92;;;19.30;99.90;;;;;;4900509;29;20490;-77
2022/08/17 03:15:26;;;;;;;37.53;32.53;;;19.30;99.90;;;;;;4885338;29;20040;-77
2022/08/17 03:17:53;;;;;;;38.03;33.17;;;19.30;99.90;;;;;;4906998;29;20035;-77
2022/08/17 03:20:20;;;;;;;39.05;33.05;;;19.20;99.90;;;;;;4907390;29;20052;-77
2022/08/17 03:22:51;;;;;;;36.50;31.80;;;19.20;99.90;;;;;;4915964;29;20036;-77
2022/08/17 03:25:25;;;;;;;39.55;32.65;;;19.20;99.90;;;;;;4899901;29;20055;-77
2022/08/17 03:27:51;;;;;;;37.35;32.35;;;19.10;99.90;;;;;;4903489;29;20044;-77
2022/08/17 03:30:17;;;;;;;38.80;32.45;;;19.10;99.90;;;;;;4931768;29;20051;-77
2022/08/17 03:32:45;;;;;;;38.63;32.97;;;19.10;99.90;;;;;;4918395;29;20070;-77
2022/08/17 03:35:14;;;;;;;38.25;32.83;;;19.10;99.90;;;;;;4935023;29;20455;-77
2022/08/17 03:37:40;;;;;;;38.10;34.00;;;19.10;99.90;;;;;;4935305;29;20038;-77
2022/08/17 03:40:07;;;;;;;37.10;33.10;;;19.10;99.90;;;;;;4916345;29;20043;-77
2022/08/17 03:42:34;;;;;;;35.42;31.55;;;19.10;99.90;;;;;;4934068;29;20050;-77
2022/08/17 03:45:01;;;;;;;35.70;31.88;;;19.00;99.90;;;;;;4917780;29;20062;-77
2022/08/17 03:58:26;;;;;;;34.55;30.83;;;19.00;99.90;;;;;;4918082;29;20041;-77
2022/08/17 04:00:53;;;;;;;38.35;32.47;;;19.00;99.90;;;;;;4933481;29;20047;-77
2022/08/17 04:03:19;;;;;;;38.10;32.95;;;18.90;99.90;;;;;;4916806;29;20043;-77
2022/08/17 04:05:45;;;;;;;32.38;28.55;;;19.00;99.90;;;;;;4905858;29;20122;-77
2022/08/17 04:08:10;;;;;;;32.95;29.40;;;19.00;99.90;;;;;;4914898;29;20123;-77
2022/08/17 04:10:37;;;;;;;33.90;30.02;;;19.00;99.90;;;;;;4915247;29;20047;-77
2022/08/17 04:13:03;;;;;;;33.95;29.08;;;19.00;99.90;;;;;;4908357;29;20055;-77
2022/08/17 04:15:29;;;;;;;37.55;32.55;;;19.00;99.90;;;;;;4931172;29;20500;-77
2022/08/17 04:17:56;;;;;;;36.00;31.77;;;19.00;99.90;;;;;;4925362;29;20134;-77
2022/08/17 04:20:23;;;;;;;33.08;29.42;;;19.00;99.90;;;;;;4923732;29;20051;-77
2022/08/17 04:23:01;;;;;;;35.28;31.35;;;18.90;99.90;;;;;;4931138;29;20052;-77
2022/08/17 04:25:29;;;;;;;33.58;30.05;;;18.90;99.90;;;;;;4920557;29;20040;-77
2022/08/17 04:27:55;;;;;;;36.38;30.75;;;18.90;99.90;;;;;;4903759;29;20055;-77
2022/08/17 04:30:22;;;;;;;33.53;28.95;;;18.80;99.90;;;;;;4920266;29;20468;-77
2022/08/17 04:33:07;;;;;;;33.80;29.98;;;18.80;99.90;;;;;;4920751;29;20138;-77
2022/08/17 04:35:40;;;;;;;31.30;27.97;;;18.80;99.90;;;;;;4937624;29;20428;-77
2022/08/17 04:38:08;;;;;;;33.38;29.65;;;18.80;99.90;;;;;;4920719;29;20361;-77
2022/08/17 04:43:21;;;;;;;33.75;30.17;;;18.80;99.90;;;;;;4936067;29;20074;-77
2022/08/17 04:45:54;;;;;;;35.83;29.77;;;18.80;99.90;;;;;;4936855;29;20431;-77
2022/08/17 04:48:19;;;;;;;33.70;30.08;;;18.80;99.90;;;;;;4937134;29;20054;-77
2022/08/17 04:50:47;;;;;;;33.65;28.73;;;18.90;99.90;;;;;;4905991;29;20047;-77
2022/08/17 04:53:14;;;;;;;31.80;27.35;;;18.90;99.90;;;;;;4921584;29;20046;-77
2022/08/17 04:55:40;;;;;;;32.67;27.05;;;18.90;99.90;;;;;;4941345;29;20435;-77
2022/08/17 04:58:06;;;;;;;30.90;27.60;;;18.90;99.90;;;;;;4934980;29;20098;-77
2022/08/17 05:00:32;;;;;;;29.02;26.02;;;18.90;99.90;;;;;;4940111;29;20616;-77
2022/08/17 05:02:58;;;;;;;30.67;25.83;;;18.90;99.90;;;;;;4935714;29;20121;-77
2022/08/17 05:05:27;;;;;;;28.65;25.60;;;18.90;99.90;;;;;;4922712;29;20483;-77
2022/08/17 05:07:56;;;;;;;29.23;26.13;;;18.90;99.90;;;;;;4938060;29;20559;-77
2022/08/17 05:10:24;;;;;;;30.17;26.67;;;18.90;99.90;;;;;;4937616;29;20090;-77
2022/08/17 05:13:03;;;;;;;31.80;26.35;;;19.00;99.90;;;;;;4921790;29;20050;-77
2022/08/17 05:15:30;;;;;;;30.40;27.05;;;19.00;99.90;;;;;;4936060;29;20077;-77
2022/08/17 05:17:55;;;;;;;30.55;27.35;;;19.00;99.90;;;;;;4936860;29;20044;-77
2022/08/17 05:20:22;;;;;;;33.47;27.98;;;18.90;99.90;;;;;;4936532;29;20044;-77
2022/08/17 05:22:55;;;;;;;33.83;28.25;;;18.90;99.90;;;;;;4936546;29;20487;-77
2022/08/17 05:25:28;;;;;;;31.83;28.23;;;18.90;99.90;;;;;;4936655;29;20043;-77
2022/08/17 05:27:54;;;;;;;33.28;29.90;;;18.90;99.90;;;;;;4920612;29;20126;-82
2022/08/17 05:30:21;;;;;;;34.28;29.90;;;18.90;99.90;;;;;;4938157;29;20118;-81
2022/08/17 05:33:03;;;;;;;33.28;29.40;;;18.90;99.90;;;;;;4937443;29;20059;-82
2022/08/17 05:35:31;;;;;;;32.70;28.13;;;19.00;99.90;;;;;;4921438;29;20072;-82
2022/08/17 05:37:58;;;;;;;31.42;27.83;;;19.00;99.90;;;;;;4937940;29;20044;-82
2022/08/17 05:40:24;;;;;;;34.35;29.85;;;19.10;99.90;;;;;;4920832;29;20369;-82
2022/08/17 05:42:51;;;;;;;31.58;28.25;;;19.10;99.90;;;;;;4936571;29;20059;-82
2022/08/17 05:45:19;;;;;;;31.13;27.92;;;19.10;99.90;;;;;;4936677;29;20563;-82
2022/08/17 05:47:46;;;;;;;32.80;27.90;;;19.20;99.90;;;;;;4920892;29;20036;-82
2022/08/17 05:50:23;;;;;;;32.35;27.15;;;19.20;99.90;;;;;;4921197;29;20048;-82
2022/08/17 05:52:55;;;;;;;35.35;31.63;;;19.30;99.90;;;;;;4920706;29;20492;-82
2022/08/17 05:55:39;;;;;;;30.58;27.45;;;19.30;99.90;;;;;;4921024;29;20488;-82
2022/08/17 05:58:44;;;;;;;30.00;26.58;;;19.40;99.90;;;;;;4936076;29;20137;-82
2022/08/17 06:01:32;;;;;;;33.42;29.75;;;19.40;99.90;;;;;;4920704;29;20039;-81
2022/08/17 06:04:34;;;;;;;30.77;27.13;;;19.40;99.90;;;;;;4936843;29;20067;-82
2022/08/17 06:07:20;;;;;;;30.45;27.20;;;19.50;99.90;;;;;;4936498;29;20400;-81
2022/08/17 06:10:03;;;;;;;28.65;25.58;;;19.50;99.90;;;;;;4920421;29;20039;-82
2022/08/17 06:12:41;;;;;;;29.27;26.25;;;19.50;99.90;;;;;;4936085;29;20044;-82
2022/08/17 06:15:18;;;;;;;29.80;26.70;;;19.60;99.90;;;;;;4936575;29;20122;-82
2022/08/17 06:17:44;;;;;;;29.63;26.23;;;19.60;99.90;;;;;;4918012;29;20100;-82
2022/08/17 06:20:14;;;;;;;27.20;24.40;;;19.70;99.90;;;;;;4901604;29;20127;-82
2022/08/17 06:22:46;;;;;;;31.65;27.52;;;19.70;99.90;;;;;;4901479;29;20048;-82
2022/08/17 06:25:16;;;;;;;30.98;27.40;;;19.70;99.90;;;;;;4901083;29;20051;-82
2022/08/17 06:27:50;;;;;;;30.88;27.77;;;19.70;99.90;;;;;;4917704;29;20050;-82
2022/08/17 06:30:21;;;;;;;32.58;29.17;;;19.70;99.90;;;;;;4917132;29;20044;-82
2022/08/17 06:32:49;;;;;;;31.90;27.85;;;19.70;99.90;;;;;;4901090;29;20393;-82
2022/08/17 06:35:41;;;;;;;31.42;28.02;;;19.70;99.90;;;;;;4909596;29;20063;-82
2022/08/17 06:38:15;;;;;;;29.00;25.98;;;19.70;99.90;;;;;;4914592;29;20044;-81
2022/08/17 06:41:03;;;;;;;27.77;25.02;;;19.70;99.90;;;;;;4931046;29;20101;-81
2022/08/17 06:43:51;;;;;;;27.50;24.80;;;19.70;99.90;;;;;;4918547;29;20060;-81
2022/08/17 06:46:45;;;;;;;30.02;24.05;;;19.70;99.90;;;;;;4916266;29;20115;-81
2022/08/17 06:49:40;;;;;;;37.95;32.83;;;19.70;99.90;;;;;;4932123;29;20510;-83
2022/08/17 06:52:28;;;;;;;40.25;34.13;;;19.70;99.90;;;;;;4898554;29;20464;-81
2022/08/17 06:55:09;;;;;;;43.10;35.70;;;19.70;99.90;;;;;;4912517;29;20047;-81
2022/08/17 06:57:37;;;;;;;44.70;35.30;;;19.60;99.90;;;;;;4917111;29;20134;-81
2022/08/17 07:00:17;;;;;;;38.47;34.40;;;19.50;99.90;;;;;;4935864;29;20135;-82
2022/08/17 07:02:58;;;;;;;39.85;35.50;;;19.40;99.90;;;;;;4929539;29;20062;-81
2022/08/17 07:05:46;;;;;;;44.78;36.95;;;19.40;99.90;;;;;;4935191;29;20492;-81
2022/08/17 07:08:45;;;;;;;47.65;36.88;;;19.40;99.90;;;;;;4916871;29;20091;-80
2022/08/17 07:11:19;;;;;;;40.42;35.28;;;19.40;99.90;;;;;;4933961;29;20503;-80
2022/08/17 07:14:11;;;;;;;42.70;37.25;;;19.30;99.90;;;;;;4933833;29;20109;-80
2022/08/17 07:16:37;;;;;;;40.83;35.25;;;19.30;99.90;;;;;;4919997;29;20036;-80
2022/08/17 07:19:04;;;;;;;47.38;37.97;;;19.30;99.90;;;;;;4914240;29;20532;-79
2022/08/17 07:21:49;;;;;;;44.13;36.92;;;19.30;99.90;;;;;;4908718;29;20423;-80
2022/08/17 07:24:43;;;;;;;41.83;35.10;;;19.30;99.90;;;;;;4916406;29;20044;-80
2022/08/17 07:27:23;;;;;;;37.88;33.88;;;19.20;99.90;;;;;;4915962;29;20048;-79
2022/08/17 07:29:57;;;;;;;39.42;33.53;;;19.30;99.90;;;;;;4926158;29;20488;-80
2022/08/17 07:32:30;;;;;;;34.97;31.52;;;19.30;99.90;;;;;;4928587;29;20043;-80
2022/08/17 07:35:20;;;;;;;36.72;31.85;;;19.30;99.90;;;;;;4933935;29;20047;-84
2022/08/17 07:37:52;;;;;;;35.75;31.90;;;19.30;99.90;;;;;;4933448;29;20039;-83
2022/08/17 07:40:33;;;;;;;35.95;32.15;;;19.30;99.90;;;;;;4931322;29;20131;-83
2022/08/17 07:43:22;;;;;;;39.47;34.40;;;19.30;99.90;;;;;;4916536;29;20158;-83
2022/08/17 07:48:43;;;;;;;43.03;37.67;;;19.40;99.90;;;;;;4938490;29;20048;-80
2022/08/17 07:51:26;;;;;;;43.47;37.75;;;19.50;99.90;;;;;;4938031;29;20088;-84
2022/08/17 07:53:54;;;;;;;46.72;37.80;;;19.50;99.90;;;;;;4933286;29;20050;-80
2022/08/17 07:56:54;;;;;;;45.45;37.05;;;19.50;99.90;;;;;;4906489;29;20071;-80
2022/08/17 07:59:27;;;;;;;44.33;36.42;;;19.50;99.90;;;;;;4907064;29;20060;-81
2022/08/17 08:01:56;;;;;;;49.95;39.03;;;19.70;99.90;;;;;;4906385;29;20048;-80
2022/08/17 08:04:33;;;;;;;44.50;35.85;;;19.80;99.90;;;;;;4938871;29;20040;-80
2022/08/17 08:07:01;;;;;;;42.95;36.42;;;19.90;99.90;;;;;;4938472;29;20086;-81
2022/08/17 08:09:34;;;;;;;43.22;35.92;;;20.00;99.90;;;;;;4909518;29;20071;-81
2022/08/17 08:12:20;;;;;;;43.83;37.42;;;20.10;99.90;;;;;;4920793;29;20521;-80
2022/08/17 08:14:56;;;;;;;41.33;36.78;;;20.00;99.90;;;;;;4937886;29;20052;-81
2022/08/17 08:17:29;;;;;;;41.28;36.72;;;20.00;99.90;;;;;;4918625;29;20487;-80
2022/08/17 08:19:57;;;;;;;43.85;36.45;;;20.00;99.90;;;;;;4921812;29;20071;-80
2022/08/17 08:22:45;;;;;;;40.55;35.67;;;20.00;99.90;;;;;;4921083;29;20174;-81
2022/08/17 08:25:43;;;;;;;40.22;35.08;;;20.00;99.90;;;;;;4909114;29;20396;-82
2022/08/17 08:28:18;;;;;;;43.17;36.00;;;20.00;99.90;;;;;;4920320;29;20497;-83
2022/08/17 08:30:48;;;;;;;43.70;38.47;;;20.00;99.90;;;;;;4938118;29;20043;-83
2022/08/17 08:33:28;;;;;;;41.00;36.00;;;20.00;99.90;;;;;;4938150;29;20097;-82
2022/08/17 08:36:12;;;;;;;39.88;35.03;;;20.00;99.90;;;;;;4938473;29;20496;-82
2022/08/17 08:39:02;;;;;;;39.42;34.42;;;20.10;99.90;;;;;;4930348;29;20034;-82
2022/08/17 08:42:06;;;;;;;43.10;38.38;;;20.10;99.90;;;;;;4935612;29;20054;-82
2022/08/17 08:44:50;;;;;;;46.22;39.17;;;20.10;99.90;;;;;;4896506;29;20056;-81
2022/08/17 08:47:22;;;;;;;44.22;36.22;;;20.20;99.90;;;;;;4903434;29;20083;-81
2022/08/17 08:50:07;;;;;;;37.33;33.38;;;20.20;99.90;;;;;;4940009;29;20039;-80
2022/08/17 08:53:02;;;;;;;40.13;34.35;;;20.30;99.90;;;;;;4927106;29;20404;-81
2022/08/17 08:55:46;;;;;;;43.13;37.35;;;20.50;99.90;;;;;;4947322;29;20071;-80
2022/08/17 08:58:16;;;;;;;44.10;38.33;;;20.70;99.90;;;;;;4935497;29;20036;-80
2022/08/17 09:00:47;;;;;;;43.13;37.85;;;20.80;99.90;;;;;;4914406;29;20040;-80
2022/08/17 09:03:51;;;;;;;37.90;33.45;;;20.80;99.90;;;;;;4921016;29;20071;-82
2022/08/17 09:06:20;;;;;;;36.95;33.05;;;20.80;99.90;;;;;;4881615;29;20089;-81
2022/08/17 09:08:49;;;;;;;39.00;33.72;;;20.80;99.90;;;;;;4865683;29;20127;-81
2022/08/17 09:11:34;;;;;;;39.58;35.22;;;20.90;99.90;;;;;;4894145;29;20135;-80
2022/08/17 09:14:30;;;;;;;46.10;38.72;;;21.00;99.90;;;;;;4921514;29;20483;-80
2022/08/17 09:17:19;;;;;;;38.72;34.60;;;21.20;99.90;;;;;;4936839;29;20039;-81
2022/08/17 09:20:13;;;;;;;41.40;36.55;;;21.10;99.90;;;;;;4921887;29;20119;-80
2022/08/17 09:22:44;;;;;;;40.00;35.63;;;21.20;99.90;;;;;;4938949;29;20055;-81
2022/08/17 09:25:12;;;;;;;41.08;36.78;;;21.30;99.90;;;;;;4922543;29;20047;-81
2022/08/17 09:28:00;;;;;;;41.65;36.05;;;21.30;99.90;;;;;;4919177;29;20507;-81
2022/08/17 09:30:35;;;;;;;37.28;33.28;;;21.30;99.90;;;;;;4927426;29;20102;-81
2022/08/17 09:33:06;;;;;;;42.55;38.03;;;21.40;99.90;;;;;;4936097;29;20179;-81
2022/08/17 09:35:38;;;;;;;43.72;39.10;;;21.50;99.90;;;;;;4938099;29;20059;-81
2022/08/17 09:38:45;;;;;;;39.75;34.78;;;21.50;99.90;;;;;;4930617;29;20496;-83
2022/08/17 09:41:47;;;;;;;40.45;34.85;;;21.50;99.90;;;;;;4940050;29;20046;-83
2022/08/17 09:44:35;;;;;;;37.28;33.22;;;21.50;99.90;;;;;;4899170;29;20444;-84
2022/08/17 09:47:14;;;;;;;37.25;33.30;;;21.50;99.90;;;;;;4936747;29;20044;-81
2022/08/17 09:49:49;;;;;;;40.38;36.17;;;21.50;99.90;;;;;;4936464;29;20078;-81
2022/08/17 09:52:20;;;;;;;;;;;21.60;99.90;;;;;;4929196;29;20123;-84
2022/08/17 09:54:49;;;;;;;35.20;31.50;;;21.60;99.90;;;;;;4921450;29;19922;-82
2022/08/17 09:57:27;;;;;;;36.45;32.58;;;21.60;99.90;;;;;;4935606;29;20111;-83
2022/08/17 10:00:25;;;;;;;41.00;36.58;;;21.70;99.90;;;;;;4923878;29;20068;-82
2022/08/17 10:03:08;;;;;;;38.42;34.45;;;21.80;99.90;;;;;;4920902;29;20054;-82
2022/08/17 10:05:47;;;;;;;40.50;35.67;;;21.80;99.90;;;;;;4933120;29;20051;-81
2022/08/17 10:08:15;;;;;;;35.97;32.08;;;21.80;99.90;;;;;;4916653;29;20163;-84
2022/08/17 10:11:04;;;;;;;42.83;38.17;;;21.80;99.90;;;;;;4918636;29;20567;-83
2022/08/17 10:13:47;;;;;;;40.35;36.30;;;21.90;99.90;;;;;;4933320;29;20172;-82
2022/08/17 10:16:34;;;;;;;41.35;36.95;;;21.80;99.90;;;;;;4906201;29;20039;-83
2022/08/17 10:19:25;;;;;;;40.72;36.50;;;21.80;99.90;;;;;;4918425;29;20122;-85
2022/08/17 10:27:38;;;;;;;39.25;34.75;;;21.90;99.90;;;;;;4935213;29;20119;-83
2022/08/17 10:30:06;;;;;;;39.75;35.50;;;22.00;99.90;;;;;;4916545;29;20044;-83
2022/08/17 10:32:48;;;;;;;41.15;36.78;;;22.20;99.90;;;;;;4920364;29;20551;-82
2022/08/17 10:35:26;;;;;;;37.88;34.08;;;22.40;99.90;;;;;;4926866;29;20051;-82
2022/08/17 10:38:29;;;;;;;39.08;34.85;;;22.50;99.90;;;;;;4923410;29;20043;-81
2022/08/17 10:41:13;;;;;;;36.13;32.28;;;22.70;99.90;;;;;;4916231;29;20055;-83
2022/08/17 10:43:49;;;;;;;35.72;31.75;;;22.80;99.90;;;;;;4934000;29;20083;-83
2022/08/17 10:46:25;;;;;;;37.90;33.70;;;23.00;99.90;;;;;;4927574;29;20048;-82
2022/08/17 10:49:16;;;;;;;38.20;34.30;;;23.10;99.90;;;;;;4917637;29;20051;-82
2022/08/17 10:51:46;;;;;;;35.97;32.10;;;23.30;99.90;;;;;;4918491;29;20071;-82
2022/08/17 10:54:24;;;;;;;37.47;33.55;;;23.30;99.90;;;;;;4935099;29;20090;-82
2022/08/17 10:56:51;;;;;;;34.05;29.63;;;23.30;99.90;;;;;;4936540;29;20040;-81
2022/08/17 10:59:40;;;;;;;35.42;31.60;;;23.30;99.90;;;;;;4918385;29;20044;-82
2022/08/17 11:02:13;;;;;;;29.77;26.80;;;23.30;99.90;;;;;;4913470;29;20067;-82
2022/08/17 11:04:46;;;;;;;33.28;30.00;;;23.20;99.90;;;;;;4935505;29;20043;-81
2022/08/17 11:07:42;;;;;;;32.28;28.98;;;23.30;99.90;;;;;;4935354;29;20047;-81
2022/08/17 11:10:26;;;;;;;34.58;31.05;;;23.30;99.90;;;;;;4889367;29;20507;-82
2022/08/17 11:13:13;;;;;;;33.90;30.45;;;23.40;99.90;;;;;;4934036;29;20044;-82
2022/08/17 11:15:55;;;;;;;33.00;29.40;;;23.40;99.90;;;;;;4920614;29;20460;-82
2022/08/17 11:18:45;;;;;;;36.33;32.63;;;23.30;99.90;;;;;;4920864;29;20044;-82
2022/08/17 11:21:50;;;;;;;32.65;29.27;;;23.40;99.90;;;;;;4920515;29;20100;-82
2022/08/17 11:24:29;;;;;;;28.02;25.33;;;23.30;99.90;;;;;;4920296;29;20083;-82
2022/08/17 11:27:07;;;;;;;30.02;26.88;;;23.30;99.90;;;;;;4936453;29;20067;-82
2022/08/17 11:29:45;;;;;;;25.75;23.05;;;23.40;99.90;;;;;;4933677;29;20052;-82
2022/08/17 11:32:33;;;;;;;31.67;28.45;;;23.40;99.90;;;;;;4923344;29;20103;-82
2022/08/17 11:35:20;;;;;;;26.63;23.88;;;23.60;99.90;;;;;;4939089;29;20567;-82
2022/08/17 11:38:11;;;;;;;25.40;22.85;;;23.50;99.90;;;;;;4938010;29;20035;-82
2022/08/17 11:41:07;;;;;;;26.73;23.88;;;23.50;99.90;;;;;;4938319;29;20056;-81
2022/08/17 11:44:02;;;;;;;25.92;23.42;;;23.60;99.90;;;;;;4939769;29;20060;-82
2022/08/17 11:52:56;;;;;;;27.42;24.52;;;23.50;99.90;;;;;;4938704;29;20044;-82
2022/08/17 11:55:30;;;;;;;21.52;19.33;;;23.40;99.90;;;;;;4938702;29;20111;-82
2022/08/17 11:58:24;;;;;;;23.33;20.80;;;23.50;99.90;;;;;;4922942;29;20050;-82
2022/08/17 12:00:55;;;;;;;22.05;19.67;;;23.50;99.90;;;;;;4929621;29;20063;-82
2022/08/17 12:03:32;;;;;;;22.98;20.58;;;23.50;99.90;;;;;;4915292;29;20101;-81
2022/08/17 12:06:03;;;;;;;21.42;19.25;;;23.50;99.90;;;;;;4938650;29;20074;-82
2022/08/17 12:08:32;;;;;;;21.13;18.40;;;23.60;99.90;;;;;;4921440;29;20079;-82
2022/08/17 12:11:06;;;;;;;25.60;19.77;;;23.60;99.90;;;;;;4937312;29;20043;-82
2022/08/17 12:14:02;;;;;;;23.70;19.27;;;23.60;99.90;;;;;;4938076;29;20083;-83
2022/08/17 12:16:28;;;;;;;24.83;22.08;;;23.60;99.90;;;;;;4920371;29;20066;-82
2022/08/17 12:18:57;;;;;;;22.63;20.33;;;23.70;99.90;;;;;;4903633;29;20488;-85
2022/08/17 12:21:50;;;;;;;25.77;23.27;;;23.70;99.90;;;;;;4933756;29;20484;-83
2022/08/17 12:24:30;;;;;;;24.05;20.95;;;23.60;99.90;;;;;;4918566;29;20076;-84
2022/08/17 12:26:59;;;;;;;23.60;21.02;;;23.70;99.90;;;;;;4919333;29;20071;-85
2022/08/17 12:29:28;;;;;;;23.08;20.67;;;23.70;99.90;;;;;;4931047;29;20047;-84
2022/08/17 12:31:54;;;;;;;25.08;22.40;;;23.70;99.90;;;;;;4921688;29;20055;-87
2022/08/17 12:34:27;;;;;;;25.38;22.67;;;23.70;99.90;;;;;;4925689;29;20124;-83
2022/08/17 12:36:59;;;;;;;26.23;23.42;;;23.70;99.90;;;;;;4937727;29;20087;-84
2022/08/17 12:39:28;;;;;;;24.10;21.65;;;23.60;99.90;;;;;;4921752;29;20043;-85
2022/08/17 12:41:57;;;;;;;23.33;20.92;;;23.60;99.90;;;;;;4917852;29;20147;-83
2022/08/17 12:44:33;;;;;;;23.05;20.65;;;23.70;99.90;;;;;;4918847;29;20068;-82
2022/08/17 12:47:18;;;;;;;21.92;19.75;;;23.70;99.90;;;;;;4921351;29;20511;-83
2022/08/17 12:49:47;;;;;;;22.05;19.75;;;23.80;99.90;;;;;;4920398;29;20044;-84
2022/08/17 12:52:25;;;;;;;22.00;19.73;;;23.80;99.90;;;;;;4919421;29;20091;-85
2022/08/17 12:54:58;;;;;;;23.80;20.10;;;23.80;99.90;;;;;;4921874;29;20059;-84
2022/08/17 12:57:45;;;;;;;19.45;17.38;;;23.80;99.90;;;;;;4922306;29;20047;-84
2022/08/17 13:00:21;;;;;;;20.08;18.08;;;23.70;99.90;;;;;;4938238;29;20043;-84
2022/08/17 13:03:04;;;;;;;18.92;16.98;;;23.70;99.90;;;;;;4938142;29;20083;-84
2022/08/17 13:05:36;;;;;;;18.67;16.67;;;23.60;99.90;;;;;;4937660;29;20511;-83
2022/08/17 13:08:26;;;;;;;21.88;19.58;;;23.60;99.90;;;;;;4921722;29;20048;-84
2022/08/17 13:11:08;;;;;;;22.45;19.92;;;23.50;99.90;;;;;;4936778;29;20054;-85
2022/08/17 13:13:43;;;;;;;21.75;19.50;;;23.50;99.90;;;;;;4937117;29;20040;-83
2022/08/17 13:16:13;;;;;;;25.80;23.13;;;23.40;99.90;;;;;;4907814;29;20079;-83
2022/08/17 13:19:07;;;;;;;25.00;21.15;;;23.20;99.90;;;;;;4921685;29;20044;-83
2022/08/17 13:21:34;;;;;;;28.10;25.20;;;23.10;99.90;;;;;;4892289;29;20068;-84
2022/08/17 13:24:18;;;;;;;27.17;21.98;;;23.00;99.90;;;;;;4921644;29;20042;-83
2022/08/17 13:27:00;;;;;;;28.98;25.83;;;23.00;99.90;;;;;;4918449;29;20052;-83
2022/08/17 13:29:31;;;;;;;27.88;22.48;;;22.90;99.90;;;;;;4918435;29;20131;-82
2022/08/17 13:32:03;;;;;;;26.00;23.08;;;22.80;99.90;;;;;;4901825;29;20056;-83
2022/08/17 13:34:34;;;;;;;24.77;22.10;;;22.70;99.90;;;;;;4917284;29;20124;-82
2022/08/17 13:37:29;;;;;;;25.65;23.15;;;22.70;99.90;;;;;;4918065;29;20047;-82
2022/08/17 13:40:21;;;;;;;28.00;22.50;;;22.60;99.90;;;;;;4927981;29;20071;-82
2022/08/17 13:42:48;;;;;;;25.65;22.95;;;22.60;99.90;;;;;;4919764;29;20476;-82